sensor_id;sensor_type;location;lat;lon;timestamp;pressure;altitude;pressure_sealevel;temperature;humidity
36260;BME280;22296;50.824;5.644;2023-01-31T00:01:37;101670.66;;;14.49;52.96
36260;BME280;22296;50.824;5.644;2023-01-31T00:04:10;101662.91;;;14.51;52.97
36260;BME280;22296;50.824;5.644;2023-01-31T00:06:43;101659.03;;;14.47;53.10
36260;BME280;22296;50.824;5.644;2023-01-31T00:09:11;101658.81;;;14.44;53.06
36260;BME280;22296;50.824;5.644;2023-01-31T00:11:38;101658.28;;;14.42;53.01
36260;BME280;22296;50.824;5.644;2023-01-31T00:14:06;101658.22;;;14.47;52.98
36260;BME280;22296;50.824;5.644;2023-01-31T00:16:33;101655.00;;;14.40;53.17
36260;BME280;22296;50.824;5.644;2023-01-31T00:19:01;101663.59;;;14.38;53.28
36260;BME280;22296;50.824;5.644;2023-01-31T00:21:29;101654.50;;;14.33;53.13
36260;BME280;22296;50.824;5.644;2023-01-31T00:23:57;101666.72;;;14.32;53.41
36260;BME280;22296;50.824;5.644;2023-01-31T00:26:29;101662.88;;;14.27;53.40
36260;BME280;22296;50.824;5.644;2023-01-31T00:28:57;101664.81;;;14.27;53.50
36260;BME280;22296;50.824;5.644;2023-01-31T00:31:26;101658.44;;;14.26;53.42
36260;BME280;22296;50.824;5.644;2023-01-31T00:33:54;101656.25;;;14.23;53.41
36260;BME280;22296;50.824;5.644;2023-01-31T00:36:25;101659.91;;;14.19;53.61
36260;BME280;22296;50.824;5.644;2023-01-31T00:38:56;101655.44;;;14.23;53.55
36260;BME280;22296;50.824;5.644;2023-01-31T00:41:24;101658.25;;;14.18;53.56
36260;BME280;22296;50.824;5.644;2023-01-31T00:43:51;101655.31;;;14.09;53.71
36260;BME280;22296;50.824;5.644;2023-01-31T00:46:21;101662.53;;;14.10;53.92
36260;BME280;22296;50.824;5.644;2023-01-31T00:48:52;101659.75;;;14.10;53.60
36260;BME280;22296;50.824;5.644;2023-01-31T00:51:20;101653.03;;;14.16;53.63
36260;BME280;22296;50.824;5.644;2023-01-31T00:53:48;101654.13;;;14.15;53.42
36260;BME280;22296;50.824;5.644;2023-01-31T00:56:18;101646.72;;;14.11;53.67
36260;BME280;22296;50.824;5.644;2023-01-31T00:58:45;101657.56;;;14.07;53.68
36260;BME280;22296;50.824;5.644;2023-01-31T01:01:23;101649.81;;;14.04;53.76
36260;BME280;22296;50.824;5.644;2023-01-31T01:03:52;101651.56;;;14.00;53.97
36260;BME280;22296;50.824;5.644;2023-01-31T01:06:20;101651.31;;;13.97;54.04
36260;BME280;22296;50.824;5.644;2023-01-31T01:08:47;101655.72;;;13.98;53.87
36260;BME280;22296;50.824;5.644;2023-01-31T01:11:23;101656.53;;;13.98;53.84
36260;BME280;22296;50.824;5.644;2023-01-31T01:13:51;101652.66;;;13.99;53.90
36260;BME280;22296;50.824;5.644;2023-01-31T01:16:22;101646.59;;;13.97;53.88
36260;BME280;22296;50.824;5.644;2023-01-31T01:18:50;101651.66;;;13.90;53.98
36260;BME280;22296;50.824;5.644;2023-01-31T01:21:22;101648.09;;;13.85;54.46
36260;BME280;22296;50.824;5.644;2023-01-31T01:23:50;101646.44;;;13.84;54.37
36260;BME280;22296;50.824;5.644;2023-01-31T01:26:23;101652.56;;;13.81;54.39
36260;BME280;22296;50.824;5.644;2023-01-31T01:28:51;101653.41;;;13.81;54.32
36260;BME280;22296;50.824;5.644;2023-01-31T01:31:19;101660.69;;;13.72;54.72
36260;BME280;22296;50.824;5.644;2023-01-31T01:33:47;101658.22;;;13.70;54.65
36260;BME280;22296;50.824;5.644;2023-01-31T01:36:16;101665.19;;;13.68;54.72
36260;BME280;22296;50.824;5.644;2023-01-31T01:38:47;101666.28;;;13.67;54.83
36260;BME280;22296;50.824;5.644;2023-01-31T01:41:14;101672.66;;;13.67;54.67
36260;BME280;22296;50.824;5.644;2023-01-31T01:48:56;101664.69;;;13.61;54.77
36260;BME280;22296;50.824;5.644;2023-01-31T01:51:25;101648.63;;;13.58;54.86
36260;BME280;22296;50.824;5.644;2023-01-31T01:53:55;101653.34;;;13.57;55.05
36260;BME280;22296;50.824;5.644;2023-01-31T01:56:33;101640.88;;;13.60;54.69
36260;BME280;22296;50.824;5.644;2023-01-31T01:59:14;101645.84;;;13.63;54.78
36260;BME280;22296;50.824;5.644;2023-01-31T02:01:42;101640.88;;;13.60;54.78
36260;BME280;22296;50.824;5.644;2023-01-31T02:04:14;101648.06;;;13.61;54.51
36260;BME280;22296;50.824;5.644;2023-01-31T02:06:43;101651.47;;;13.53;54.94
36260;BME280;22296;50.824;5.644;2023-01-31T02:09:45;101641.22;;;13.53;54.95
36260;BME280;22296;50.824;5.644;2023-01-31T02:12:14;101636.50;;;13.49;55.03
36260;BME280;22296;50.824;5.644;2023-01-31T02:14:41;101638.13;;;13.55;54.92
36260;BME280;22296;50.824;5.644;2023-01-31T02:17:15;101627.03;;;13.55;54.81
36260;BME280;22296;50.824;5.644;2023-01-31T02:25:46;101622.66;;;13.49;54.99
36260;BME280;22296;50.824;5.644;2023-01-31T02:39:55;101626.06;;;13.41;55.04
36260;BME280;22296;50.824;5.644;2023-01-31T02:45:36;101633.28;;;13.42;55.00
36260;BME280;22296;50.824;5.644;2023-01-31T02:48:27;101634.75;;;13.34;54.98
36260;BME280;22296;50.824;5.644;2023-01-31T02:51:14;101629.47;;;13.33;55.07
36260;BME280;22296;50.824;5.644;2023-01-31T02:54:12;101621.69;;;13.35;55.04
36260;BME280;22296;50.824;5.644;2023-01-31T02:56:42;101629.53;;;13.28;55.13
36260;BME280;22296;50.824;5.644;2023-01-31T03:01:45;101631.78;;;13.21;55.24
36260;BME280;22296;50.824;5.644;2023-01-31T03:04:14;101633.41;;;13.27;55.15
36260;BME280;22296;50.824;5.644;2023-01-31T03:07:13;101633.13;;;13.23;55.21
36260;BME280;22296;50.824;5.644;2023-01-31T03:10:02;101631.47;;;13.27;55.03
36260;BME280;22296;50.824;5.644;2023-01-31T03:15:40;101621.78;;;13.25;55.16
36260;BME280;22296;50.824;5.644;2023-01-31T03:18:29;101621.53;;;13.21;54.98
36260;BME280;22296;50.824;5.644;2023-01-31T03:21:12;101621.78;;;13.25;54.92
36260;BME280;22296;50.824;5.644;2023-01-31T03:23:41;101611.56;;;13.20;55.05
36260;BME280;22296;50.824;5.644;2023-01-31T03:26:10;101611.84;;;13.19;54.90
36260;BME280;22296;50.824;5.644;2023-01-31T03:28:40;101604.09;;;13.21;55.08
36260;BME280;22296;50.824;5.644;2023-01-31T03:34:06;101605.50;;;13.18;54.99
36260;BME280;22296;50.824;5.644;2023-01-31T03:36:57;101605.25;;;13.14;55.09
36260;BME280;22296;50.824;5.644;2023-01-31T03:40:03;101606.06;;;13.15;55.11
36260;BME280;22296;50.824;5.644;2023-01-31T03:45:52;101604.47;;;13.04;55.47
36260;BME280;22296;50.824;5.644;2023-01-31T03:48:22;101608.13;;;12.99;55.36
36260;BME280;22296;50.824;5.644;2023-01-31T03:50:56;101596.25;;;12.94;55.58
36260;BME280;22296;50.824;5.644;2023-01-31T03:56:09;101600.38;;;12.96;55.51
36260;BME280;22296;50.824;5.644;2023-01-31T03:58:47;101602.00;;;12.97;55.45
36260;BME280;22296;50.824;5.644;2023-01-31T04:01:17;101603.72;;;12.93;55.51
36260;BME280;22296;50.824;5.644;2023-01-31T04:03:57;101610.38;;;12.92;55.73
36260;BME280;22296;50.824;5.644;2023-01-31T04:06:26;101605.66;;;12.93;55.49
36260;BME280;22296;50.824;5.644;2023-01-31T04:08:53;101613.72;;;12.89;55.41
36260;BME280;22296;50.824;5.644;2023-01-31T04:11:24;101611.50;;;12.91;55.49
36260;BME280;22296;50.824;5.644;2023-01-31T04:13:51;101604.88;;;12.87;55.36
36260;BME280;22296;50.824;5.644;2023-01-31T04:16:18;101604.34;;;12.85;55.60
36260;BME280;22296;50.824;5.644;2023-01-31T04:18:45;101598.25;;;12.83;55.70
36260;BME280;22296;50.824;5.644;2023-01-31T04:21:13;101592.69;;;12.88;55.50
36260;BME280;22296;50.824;5.644;2023-01-31T04:23:40;101596.63;;;12.82;55.36
36260;BME280;22296;50.824;5.644;2023-01-31T04:26:07;101593.84;;;12.82;55.59
36260;BME280;22296;50.824;5.644;2023-01-31T04:28:34;101592.75;;;12.78;55.49
36260;BME280;22296;50.824;5.644;2023-01-31T04:31:01;101600.47;;;12.81;55.48
36260;BME280;22296;50.824;5.644;2023-01-31T04:33:27;101592.19;;;12.81;55.25
36260;BME280;22296;50.824;5.644;2023-01-31T04:35:54;101593.84;;;12.77;55.40
36260;BME280;22296;50.824;5.644;2023-01-31T04:38:21;101587.22;;;12.78;55.54
36260;BME280;22296;50.824;5.644;2023-01-31T04:40:47;101590.56;;;12.75;55.35
36260;BME280;22296;50.824;5.644;2023-01-31T04:43:14;101589.50;;;12.71;55.62
36260;BME280;22296;50.824;5.644;2023-01-31T04:45:41;101589.50;;;12.71;55.60
36260;BME280;22296;50.824;5.644;2023-01-31T04:48:08;101588.41;;;12.67;55.65
36260;BME280;22296;50.824;5.644;2023-01-31T04:50:35;101597.81;;;12.66;55.74
36260;BME280;22296;50.824;5.644;2023-01-31T04:53:02;101593.94;;;12.67;55.65
36260;BME280;22296;50.824;5.644;2023-01-31T04:55:30;101593.38;;;12.70;55.37
36260;BME280;22296;50.824;5.644;2023-01-31T04:57:57;101581.47;;;12.70;55.45
36260;BME280;22296;50.824;5.644;2023-01-31T05:00:24;101590.06;;;12.68;55.40
36260;BME280;22296;50.824;5.644;2023-01-31T05:02:51;101581.22;;;12.66;55.43
36260;BME280;22296;50.824;5.644;2023-01-31T05:05:19;101585.69;;;12.62;55.50
36260;BME280;22296;50.824;5.644;2023-01-31T05:07:46;101585.41;;;12.58;55.74
36260;BME280;22296;50.824;5.644;2023-01-31T05:10:15;101572.91;;;12.66;55.69
36260;BME280;22296;50.824;5.644;2023-01-31T05:12:43;101572.94;;;12.61;55.67
36260;BME280;22296;50.824;5.644;2023-01-31T05:15:10;101564.63;;;12.61;55.65
36260;BME280;22296;50.824;5.644;2023-01-31T05:17:37;101561.34;;;12.59;55.77
36260;BME280;22296;50.824;5.644;2023-01-31T05:20:05;101562.97;;;12.60;55.70
36260;BME280;22296;50.824;5.644;2023-01-31T05:22:32;101560.22;;;12.60;55.50
36260;BME280;22296;50.824;5.644;2023-01-31T05:24:59;101559.09;;;12.61;55.71
36260;BME280;22296;50.824;5.644;2023-01-31T05:27:26;101567.97;;;12.58;55.52
36260;BME280;22296;50.824;5.644;2023-01-31T05:29:55;101560.78;;;12.57;55.56
36260;BME280;22296;50.824;5.644;2023-01-31T05:32:22;101553.31;;;12.57;55.57
36260;BME280;22296;50.824;5.644;2023-01-31T05:34:48;101544.53;;;12.50;55.70
36260;BME280;22296;50.824;5.644;2023-01-31T05:37:15;101543.16;;;12.48;55.71
36260;BME280;22296;50.824;5.644;2023-01-31T05:39:42;101544.53;;;12.50;55.77
36260;BME280;22296;50.824;5.644;2023-01-31T05:42:08;101544.25;;;12.47;55.92
36260;BME280;22296;50.824;5.644;2023-01-31T05:44:35;101535.41;;;12.50;55.58
36260;BME280;22296;50.824;5.644;2023-01-31T05:47:02;101530.97;;;12.49;55.58
36260;BME280;22296;50.824;5.644;2023-01-31T05:49:29;101531.53;;;12.46;55.48
36260;BME280;22296;50.824;5.644;2023-01-31T05:52:00;101524.59;;;12.48;55.33
36260;BME280;22296;50.824;5.644;2023-01-31T05:54:27;101518.50;;;12.51;55.27
36260;BME280;22296;50.824;5.644;2023-01-31T05:56:58;101516.50;;;12.57;55.05
36260;BME280;22296;50.824;5.644;2023-01-31T05:59:24;101514.78;;;12.66;54.96
36260;BME280;22296;50.824;5.644;2023-01-31T06:01:51;101522.66;;;12.49;55.04
36260;BME280;22296;50.824;5.644;2023-01-31T06:04:20;101521.59;;;12.40;55.49
36260;BME280;22296;50.824;5.644;2023-01-31T06:06:46;101522.69;;;12.44;55.19
36260;BME280;22296;50.824;5.644;2023-01-31T06:09:13;101513.34;;;12.35;55.58
36260;BME280;22296;50.824;5.644;2023-01-31T06:11:40;101516.38;;;12.38;55.59
36260;BME280;22296;50.824;5.644;2023-01-31T06:14:07;101509.78;;;12.29;55.54
36260;BME280;22296;50.824;5.644;2023-01-31T06:16:34;101514.00;;;12.22;55.83
36260;BME280;22296;50.824;5.644;2023-01-31T06:19:01;101521.72;;;12.20;55.69
36260;BME280;22296;50.824;5.644;2023-01-31T06:21:28;101519.22;;;12.23;55.79
36260;BME280;22296;50.824;5.644;2023-01-31T06:23:55;101525.56;;;12.29;55.47
36260;BME280;22296;50.824;5.644;2023-01-31T06:26:22;101521.72;;;12.20;55.86
36260;BME280;22296;50.824;5.644;2023-01-31T06:28:49;101513.47;;;12.15;55.90
36260;BME280;22296;50.824;5.644;2023-01-31T06:31:17;101516.53;;;12.13;55.98
36260;BME280;22296;50.824;5.644;2023-01-31T06:33:44;101524.03;;;12.08;56.07
36260;BME280;22296;50.824;5.644;2023-01-31T06:36:14;101521.28;;;12.02;56.15
36260;BME280;22296;50.824;5.644;2023-01-31T06:38:47;101524.03;;;12.02;56.30
36260;BME280;22296;50.824;5.644;2023-01-31T06:41:14;101527.97;;;11.96;56.36
36260;BME280;22296;50.824;5.644;2023-01-31T06:43:41;101527.66;;;11.98;56.11
36260;BME280;22296;50.824;5.644;2023-01-31T06:46:08;101526.31;;;11.90;56.51
36260;BME280;22296;50.824;5.644;2023-01-31T06:48:35;101534.06;;;11.88;56.58
36260;BME280;22296;50.824;5.644;2023-01-31T06:51:01;101529.09;;;11.90;56.35
36260;BME280;22296;50.824;5.644;2023-01-31T06:53:28;101529.66;;;11.87;56.36
36260;BME280;22296;50.824;5.644;2023-01-31T06:55:55;101543.19;;;11.89;56.57
36260;BME280;22296;50.824;5.644;2023-01-31T06:58:22;101541.28;;;11.84;56.45
36260;BME280;22296;50.824;5.644;2023-01-31T07:00:49;101534.84;;;11.94;56.63
36260;BME280;22296;50.824;5.644;2023-01-31T07:03:16;101542.34;;;11.88;56.65
36260;BME280;22296;50.824;5.644;2023-01-31T07:05:45;101553.97;;;11.85;56.68
36260;BME280;22296;50.824;5.644;2023-01-31T07:08:11;101545.69;;;11.80;56.67
36260;BME280;22296;50.824;5.644;2023-01-31T07:10:40;101539.03;;;11.86;56.47
36260;BME280;22296;50.824;5.644;2023-01-31T07:13:06;101536.72;;;12.09;55.95
36260;BME280;22296;50.824;5.644;2023-01-31T07:15:33;101531.19;;;12.14;55.52
36260;BME280;22296;50.824;5.644;2023-01-31T07:18:00;101536.78;;;11.98;56.08
36260;BME280;22296;50.824;5.644;2023-01-31T07:20:27;101543.16;;;11.99;56.09
36260;BME280;22296;50.824;5.644;2023-01-31T07:22:57;101552.25;;;12.05;56.15
36260;BME280;22296;50.824;5.644;2023-01-31T07:25:24;101551.63;;;12.18;55.65
36260;BME280;22296;50.824;5.644;2023-01-31T07:27:51;101550.47;;;12.24;55.54
36260;BME280;22296;50.824;5.644;2023-01-31T07:30:18;101533.25;;;12.37;55.31
36260;BME280;22296;50.824;5.644;2023-01-31T07:32:45;101539.31;;;12.44;55.00
36260;BME280;22296;50.824;5.644;2023-01-31T07:35:12;101541.50;;;12.47;54.92
36260;BME280;22296;50.824;5.644;2023-01-31T07:37:38;101537.00;;;12.56;54.77
36260;BME280;22296;50.824;5.644;2023-01-31T07:40:06;101530.06;;;12.58;54.80
36260;BME280;22296;50.824;5.644;2023-01-31T07:42:33;101552.75;;;12.61;54.75
36260;BME280;22296;50.824;5.644;2023-01-31T07:45:00;101534.72;;;12.63;54.75
36260;BME280;22296;50.824;5.644;2023-01-31T07:47:47;101534.72;;;12.68;54.64
36260;BME280;22296;50.824;5.644;2023-01-31T07:50:13;101526.59;;;12.82;54.66
36260;BME280;22296;50.824;5.644;2023-01-31T07:52:40;101523.38;;;12.98;54.67
36260;BME280;22296;50.824;5.644;2023-01-31T07:55:07;101513.91;;;13.04;54.92
36260;BME280;22296;50.824;5.644;2023-01-31T07:57:34;101535.47;;;13.12;54.78
36260;BME280;22296;50.824;5.644;2023-01-31T08:00:01;101520.97;;;13.21;54.73
36260;BME280;22296;50.824;5.644;2023-01-31T08:02:36;101518.19;;;13.26;54.28
36260;BME280;22296;50.824;5.644;2023-01-31T08:05:22;101524.31;;;13.23;54.38
36260;BME280;22296;50.824;5.644;2023-01-31T08:07:49;101526.53;;;13.21;54.07
36260;BME280;22296;50.824;5.644;2023-01-31T08:10:36;101519.88;;;13.22;54.23
36260;BME280;22296;50.824;5.644;2023-01-31T08:13:03;101521.28;;;13.48;54.31
36260;BME280;22296;50.824;5.644;2023-01-31T08:15:30;101516.19;;;13.55;53.91
36260;BME280;22296;50.824;5.644;2023-01-31T08:17:57;101511.81;;;13.49;53.62
36260;BME280;22296;50.824;5.644;2023-01-31T08:20:24;101520.75;;;13.46;53.54
36260;BME280;22296;50.824;5.644;2023-01-31T08:22:50;101525.16;;;13.47;53.56
36260;BME280;22296;50.824;5.644;2023-01-31T08:25:17;101517.16;;;13.45;53.54
36260;BME280;22296;50.824;5.644;2023-01-31T08:27:46;101510.72;;;13.50;53.58
36260;BME280;22296;50.824;5.644;2023-01-31T08:30:13;101510.13;;;13.53;53.34
36260;BME280;22296;50.824;5.644;2023-01-31T08:32:39;101505.09;;;13.55;53.21
36260;BME280;22296;50.824;5.644;2023-01-31T08:35:06;101496.50;;;13.56;53.35
36260;BME280;22296;50.824;5.644;2023-01-31T08:37:34;101498.97;;;13.58;53.25
36260;BME280;22296;50.824;5.644;2023-01-31T08:40:00;101498.94;;;13.63;52.89
36260;BME280;22296;50.824;5.644;2023-01-31T08:42:27;101502.22;;;13.65;53.12
36260;BME280;22296;50.824;5.644;2023-01-31T08:44:54;101509.13;;;13.67;53.14
36260;BME280;22296;50.824;5.644;2023-01-31T08:47:21;101498.88;;;13.68;53.24
36260;BME280;22296;50.824;5.644;2023-01-31T08:49:48;101496.94;;;13.68;52.90
36260;BME280;22296;50.824;5.644;2023-01-31T08:52:15;101499.91;;;13.72;53.19
36260;BME280;22296;50.824;5.644;2023-01-31T08:54:41;101504.88;;;13.75;53.15
36260;BME280;22296;50.824;5.644;2023-01-31T08:57:08;101507.13;;;13.73;53.06
36260;BME280;22296;50.824;5.644;2023-01-31T08:59:35;101508.78;;;13.74;53.02
36260;BME280;22296;50.824;5.644;2023-01-31T09:02:04;101500.66;;;13.78;53.03
36260;BME280;22296;50.824;5.644;2023-01-31T09:04:31;101503.69;;;13.81;53.08
36260;BME280;22296;50.824;5.644;2023-01-31T09:06:57;101498.72;;;13.78;52.98
36260;BME280;22296;50.824;5.644;2023-01-31T09:09:24;101492.59;;;13.81;52.99
36260;BME280;22296;50.824;5.644;2023-01-31T09:11:51;101488.72;;;13.82;52.93
36260;BME280;22296;50.824;5.644;2023-01-31T09:14:30;101474.19;;;13.90;53.33
36260;BME280;22296;50.824;5.644;2023-01-31T09:16:56;101473.59;;;13.93;52.73
36260;BME280;22296;50.824;5.644;2023-01-31T09:19:23;101491.88;;;13.94;52.79
36260;BME280;22296;50.824;5.644;2023-01-31T09:21:50;101484.16;;;13.91;52.94
36260;BME280;22296;50.824;5.644;2023-01-31T09:24:16;101477.47;;;13.92;52.71
36260;BME280;22296;50.824;5.644;2023-01-31T09:26:43;101487.97;;;13.95;52.59
36260;BME280;22296;50.824;5.644;2023-01-31T09:29:10;101476.88;;;13.95;52.61
36260;BME280;22296;50.824;5.644;2023-01-31T09:31:36;101473.00;;;13.96;52.77
36260;BME280;22296;50.824;5.644;2023-01-31T09:34:04;101463.56;;;13.97;52.58
36260;BME280;22296;50.824;5.644;2023-01-31T09:36:30;101457.41;;;14.00;52.51
36260;BME280;22296;50.824;5.644;2023-01-31T09:38:57;101461.53;;;14.03;52.59
36260;BME280;22296;50.824;5.644;2023-01-31T09:41:44;101474.34;;;13.99;52.64
36260;BME280;22296;50.824;5.644;2023-01-31T09:46:41;101462.06;;;14.05;52.45
36260;BME280;22296;50.824;5.644;2023-01-31T09:49:17;101457.41;;;14.00;52.68
36260;BME280;22296;50.824;5.644;2023-01-31T09:51:50;101465.19;;;13.98;52.74
36260;BME280;22296;50.824;5.644;2023-01-31T09:54:21;101445.50;;;14.00;52.75
36260;BME280;22296;50.824;5.644;2023-01-31T09:57:03;101447.72;;;13.98;52.73
36260;BME280;22296;50.824;5.644;2023-01-31T10:00:02;101449.63;;;14.02;52.64
36260;BME280;22296;50.824;5.644;2023-01-31T10:05:51;101458.44;;;14.04;52.62
36260;BME280;22296;50.824;5.644;2023-01-31T10:08:40;101461.75;;;14.06;52.55
36260;BME280;22296;50.824;5.644;2023-01-31T10:11:23;101444.59;;;14.04;52.61
36260;BME280;22296;50.824;5.644;2023-01-31T10:17:10;101439.03;;;14.04;52.44
36260;BME280;22296;50.824;5.644;2023-01-31T10:19:46;101439.56;;;14.06;52.77
36260;BME280;22296;50.824;5.644;2023-01-31T10:22:25;101440.69;;;14.05;52.91
36260;BME280;22296;50.824;5.644;2023-01-31T10:24:57;101437.91;;;14.05;52.66
36260;BME280;22296;50.824;5.644;2023-01-31T10:27:40;101433.41;;;14.09;52.62
36260;BME280;22296;50.824;5.644;2023-01-31T10:30:21;101425.16;;;14.04;52.63
36260;BME280;22296;50.824;5.644;2023-01-31T10:32:54;101412.66;;;14.07;52.53
36260;BME280;22296;50.824;5.644;2023-01-31T10:35:27;101415.13;;;14.08;52.62
36260;BME280;22296;50.824;5.644;2023-01-31T10:38:10;101398.69;;;14.12;52.64
36260;BME280;22296;50.824;5.644;2023-01-31T10:40:41;101398.50;;;14.08;52.46
36260;BME280;22296;50.824;5.644;2023-01-31T10:43:27;101397.06;;;14.11;52.44
36260;BME280;22296;50.824;5.644;2023-01-31T10:45:59;101393.97;;;14.12;52.54
36260;BME280;22296;50.824;5.644;2023-01-31T10:48:28;101388.16;;;14.14;52.61
36260;BME280;22296;50.824;5.644;2023-01-31T10:51:37;101383.94;;;14.16;52.35
36260;BME280;22296;50.824;5.644;2023-01-31T10:54:31;101379.72;;;14.19;52.46
36260;BME280;22296;50.824;5.644;2023-01-31T10:57:03;101365.03;;;14.18;52.63
36260;BME280;22296;50.824;5.644;2023-01-31T10:59:33;101373.91;;;14.20;52.31
36260;BME280;22296;50.824;5.644;2023-01-31T11:02:01;101367.53;;;14.20;52.53
36260;BME280;22296;50.824;5.644;2023-01-31T11:04:35;101355.81;;;14.23;52.47
36260;BME280;22296;50.824;5.644;2023-01-31T11:07:04;101353.25;;;14.26;52.39
36260;BME280;22296;50.824;5.644;2023-01-31T11:09:35;101345.75;;;14.27;52.29
36260;BME280;22296;50.824;5.644;2023-01-31T11:12:04;101341.53;;;14.29;52.24
36260;BME280;22296;50.824;5.644;2023-01-31T11:14:32;101339.31;;;14.32;52.10
36260;BME280;22296;50.824;5.644;2023-01-31T11:19:36;101352.00;;;14.38;52.01
36260;BME280;22296;50.824;5.644;2023-01-31T11:22:04;101362.03;;;14.34;52.34
36260;BME280;22296;50.824;5.644;2023-01-31T11:24:33;101354.84;;;14.33;52.32
36260;BME280;22296;50.824;5.644;2023-01-31T11:27:05;101353.63;;;14.39;51.95
36260;BME280;22296;50.824;5.644;2023-01-31T11:29:44;101343.03;;;14.41;52.01
36260;BME280;22296;50.824;5.644;2023-01-31T11:32:30;101338.13;;;14.38;52.17
36260;BME280;22296;50.824;5.644;2023-01-31T11:35:01;101345.63;;;14.37;52.13
36260;BME280;22296;50.824;5.644;2023-01-31T11:37:32;101340.81;;;14.43;52.11
36260;BME280;22296;50.824;5.644;2023-01-31T11:42:27;101335.47;;;14.46;51.86
36260;BME280;22296;50.824;5.644;2023-01-31T11:47:30;101339.50;;;14.54;51.82
36260;BME280;22296;50.824;5.644;2023-01-31T11:49:59;101329.59;;;14.48;52.22
36260;BME280;22296;50.824;5.644;2023-01-31T11:52:29;101329.59;;;14.48;52.08
36260;BME280;22296;50.824;5.644;2023-01-31T11:55:16;101325.72;;;14.49;52.01
36260;BME280;22296;50.824;5.644;2023-01-31T11:57:44;101306.28;;;14.49;52.02
36260;BME280;22296;50.824;5.644;2023-01-31T12:00:26;101300.41;;;14.50;52.40
36260;BME280;22296;50.824;5.644;2023-01-31T12:03:03;101294.16;;;14.58;52.04
36260;BME280;22296;50.824;5.644;2023-01-31T12:05:40;101299.41;;;14.60;52.11
36260;BME280;22296;50.824;5.644;2023-01-31T12:08:27;101289.94;;;14.61;52.84
36260;BME280;22296;50.824;5.644;2023-01-31T12:10:56;101313.00;;;14.75;52.37
36260;BME280;22296;50.824;5.644;2023-01-31T12:13:24;101305.47;;;14.75;52.63
36260;BME280;22296;50.824;5.644;2023-01-31T12:21:14;101290.88;;;14.70;52.48
36260;BME280;22296;50.824;5.644;2023-01-31T12:43:29;101289.13;;;14.74;52.38
36260;BME280;22296;50.824;5.644;2023-01-31T12:48:40;101297.34;;;14.79;52.08
36260;BME280;22296;50.824;5.644;2023-01-31T12:57:30;101297.47;;;14.74;52.24
36260;BME280;22296;50.824;5.644;2023-01-31T13:06:13;101288.09;;;14.70;52.48
36260;BME280;22296;50.824;5.644;2023-01-31T13:08:52;101290.03;;;14.69;52.38
36260;BME280;22296;50.824;5.644;2023-01-31T13:11:39;101282.53;;;14.70;52.29
36260;BME280;22296;50.824;5.644;2023-01-31T13:14:19;101281.72;;;14.69;52.35
36260;BME280;22296;50.824;5.644;2023-01-31T13:16:51;101282.13;;;14.63;52.40
36260;BME280;22296;50.824;5.644;2023-01-31T13:19:33;101279.88;;;14.65;52.40
36260;BME280;22296;50.824;5.644;2023-01-31T13:22:17;101288.53;;;14.63;52.34
36260;BME280;22296;50.824;5.644;2023-01-31T13:24:50;101284.31;;;14.66;52.41
36260;BME280;22296;50.824;5.644;2023-01-31T13:27:26;101270.41;;;14.66;52.30
36260;BME280;22296;50.824;5.644;2023-01-31T13:29:59;101277.91;;;14.65;52.27
36260;BME280;22296;50.824;5.644;2023-01-31T13:32:38;101280.69;;;14.65;52.41
36260;BME280;22296;50.824;5.644;2023-01-31T13:35:24;101286.47;;;14.69;52.18
36260;BME280;22296;50.824;5.644;2023-01-31T13:38:05;101279.38;;;14.63;52.41
36260;BME280;22296;50.824;5.644;2023-01-31T13:40:44;101274.09;;;14.61;52.47
36260;BME280;22296;50.824;5.644;2023-01-31T13:43:12;101281.53;;;14.66;52.46
36260;BME280;22296;50.824;5.644;2023-01-31T13:45:48;101284.59;;;14.64;52.39
36260;BME280;22296;50.824;5.644;2023-01-31T13:48:30;101279.88;;;14.65;52.34
36260;BME280;22296;50.824;5.644;2023-01-31T13:53:36;101277.59;;;14.67;52.46
36260;BME280;22296;50.824;5.644;2023-01-31T13:56:09;101277.59;;;14.67;52.40
36260;BME280;22296;50.824;5.644;2023-01-31T13:58:38;101275.34;;;14.69;52.50
36260;BME280;22296;50.824;5.644;2023-01-31T14:01:14;101265.25;;;14.73;52.29
36260;BME280;22296;50.824;5.644;2023-01-31T14:09:32;101270.94;;;14.68;52.52
36260;BME280;22296;50.824;5.644;2023-01-31T14:12:10;101273.69;;;14.68;52.38
36260;BME280;22296;50.824;5.644;2023-01-31T14:14:56;101275.16;;;14.65;52.66
36260;BME280;22296;50.824;5.644;2023-01-31T14:22:21;101277.91;;;14.65;52.60
36260;BME280;22296;50.824;5.644;2023-01-31T14:27:29;101279.88;;;14.65;52.65
36260;BME280;22296;50.824;5.644;2023-01-31T14:52:56;101264.22;;;14.55;52.92
36260;BME280;22296;50.824;5.644;2023-01-31T14:58:23;101272.97;;;14.49;53.19
36260;BME280;22296;50.824;5.644;2023-01-31T15:00:59;101277.09;;;14.51;52.93
36260;BME280;22296;50.824;5.644;2023-01-31T15:03:33;101270.38;;;14.39;53.32
36260;BME280;22296;50.824;5.644;2023-01-31T15:06:25;101261.84;;;14.35;53.63
36260;BME280;22296;50.824;5.644;2023-01-31T15:20:17;101287.34;;;14.18;54.26
36260;BME280;22296;50.824;5.644;2023-01-31T15:22:44;101282.75;;;14.14;54.02
36260;BME280;22296;50.824;5.644;2023-01-31T15:25:35;101314.97;;;14.10;54.37
36260;BME280;22296;50.824;5.644;2023-01-31T15:28:06;101313.13;;;14.05;54.48
36260;BME280;22296;50.824;5.644;2023-01-31T15:30:37;101301.47;;;14.03;54.41
36260;BME280;22296;50.824;5.644;2023-01-31T15:35:52;101314.84;;;14.01;54.74
36260;BME280;22296;50.824;5.644;2023-01-31T15:38:53;101317.09;;;13.99;54.50
36260;BME280;22296;50.824;5.644;2023-01-31T15:41:37;101313.81;;;13.97;54.48
36260;BME280;22296;50.824;5.644;2023-01-31T15:44:30;101312.75;;;13.93;54.58
36260;BME280;22296;50.824;5.644;2023-01-31T15:46:57;101307.81;;;13.90;54.83